Terminal Aerodrome Forecast
Issued by NWS Blacksburg, VA

Home | Current Version | Previous Version | Text Only | Print | Product List | Glossary On
Versions: 1 2 3 4 5 6 7 8 9 10 11 12 13 14 15 16 17 18 19 20 21 22 23 24 25 26 27
000
FTUS41 KRNK 231133
TAFROA
TAF
KROA 231133Z 2312/2412 VRB03KT 6SM BR OVC035
      TEMPO 2312/2314 OVC025
     FM231500 08006KT P6SM VCSH BKN035 OVC080
     FM240300 08007KT 5SM -RADZ BR OVC018=

USA.gov is the U.S. government's official web portal to all federal, state and local government web resources and services.